Avi Francisco — EA8622 — position and weather

sailwx.info

Track history (hours):
 
Tides and Currents Weather Stations Pressure Air Temp Water Temp Dewpoint Dewpoint Depression Visibility Wind Speed Wind Dir Waves Ship Positions

Avi Francisco

Last reported at 2018-Jun-21 15:51 UTC. Time now 2018-Jun-22 03:51 UTC.
Position N 41°13' E 001°44'.

Length 20 m.

Type: Fishing. MMSI: 224169750.

Date/timePositionNaut miles runAvg speedWind from/ knotsBaromVisibWave heightAir tempDewpointWater temp
2018-Jun-21 15:51N 41°13' E 001°44'0 0.0
2018-Jun-21 15:30N 41°13' E 001°44'0 0.0
2018-Jun-21 14:57N 41°13' E 001°44'0 0.3
2018-Jun-21 14:30N 41°13' E 001°44'4 8.8
2018-Jun-21 14:00N 41°08' E 001°44'4 0.5
2018-Jun-21 05:27N 41°04' E 001°45'511.2
2018-Jun-21 05:00N 41°09' E 001°44'3 6.7
2018-Jun-21 04:30N 41°12' E 001°44'1 1.2
2018-Jun-21 04:00N 41°13' E 001°44'0 0.0
2018-Jun-20 15:18N 41°13' E 001°44'0 0.0
2018-Jun-20 15:00N 41°13' E 001°44'0 0.0
2018-Jun-20 14:30N 41°13' E 001°44'7 0.8
2018-Jun-20 05:19N 41°07' E 001°48'310.9
2018-Jun-20 05:00N 41°10' E 001°46'3 6.8
2018-Jun-20 04:30N 41°13' E 001°44'0 0.0
2018-Jun-19 15:58N 41°13' E 001°44'0 0.0
2018-Jun-19 15:28N 41°13' E 001°44'0 0.3
2018-Jun-19 15:00N 41°13' E 001°44'0 0.3
2018-Jun-19 14:30N 41°13' E 001°44'4 8.4
2018-Jun-19 14:00N 41°09' E 001°46'3 0.3
2018-Jun-19 05:17N 41°07' E 001°49'310.7
2018-Jun-19 05:00N 41°10' E 001°46'3 6.9
2018-Jun-19 04:31N 41°13' E 001°44'0 0.0
2018-Jun-18 14:35N 41°13' E 001°44'0 1.9
2018-Jun-18 14:30N 41°13' E 001°44'6 0.7
2018-Jun-18 05:18N 41°07' E 001°49'310.6
2018-Jun-18 05:00N 41°10' E 001°46'3 6.4
2018-Jun-18 04:30N 41°13' E 001°44'  
2018-Jun-15 15:18N 41°13' E 001°44'0 0.0
2018-Jun-15 15:00N 41°13' E 001°44'0 0.1
2018-Jun-15 14:31N 41°13' E 001°44'7 0.8
2018-Jun-15 05:24N 41°06' E 001°49'410.6
2018-Jun-15 05:00N 41°10' E 001°46'3 6.4
2018-Jun-15 04:31N 41°13' E 001°44'0 0.0
2018-Jun-14 15:10N 41°13' E 001°44'0 0.3
2018-Jun-14 14:59N 41°13' E 001°44'0 0.1
2018-Jun-14 14:30N 41°13' E 001°44'6 0.6
2018-Jun-14 05:12N 41°08' E 001°47'210.9
2018-Jun-14 05:00N 41°09' E 001°46'4 7.3
2018-Jun-14 04:30N 41°13' E 001°44'0 0.0
2018-Jun-13 14:36N 41°13' E 001°44'0 0.0
2018-Jun-13 14:31N 41°13' E 001°44'0 0.0
2018-Jun-13 14:00N 41°13' E 001°44'0 0.0
2018-Jun-13 13:31N 41°13' E 001°44'0 0.0
2018-Jun-13 13:00N 41°13' E 001°44'1 2.9
2018-Jun-13 12:30N 41°11' E 001°44'8 1.1
2018-Jun-13 05:37N 41°05' E 001°49'1 5.3
2018-Jun-13 05:30N 41°06' E 001°49'5 9.8
2018-Jun-13 05:00N 41°10' E 001°46'3 6.8
2018-Jun-13 04:31N 41°13' E 001°44'0 0.0
2018-Jun-12 15:06N 41°13' E 001°44'0 0.0
2018-Jun-12 15:00N 41°13' E 001°44'0 0.0
2018-Jun-12 14:31N 41°13' E 001°44'0 0.0
2018-Jun-12 13:40N 41°13' E 001°44'0 0.0
2018-Jun-12 13:30N 41°13' E 001°44'0 0.0
2018-Jun-12 13:01N 41°13' E 001°44'0 0.0
2018-Jun-12 12:30N 41°13' E 001°44'4 7.7
2018-Jun-12 12:00N 41°12' E 001°49'9 3.4
2018-Jun-12 09:24N 41°12' E 002°01'7 1.7
2018-Jun-12 05:27N 41°09' E 001°53'510.7
2018-Jun-12 05:01N 41°11' E 001°47'3 6.2
2018-Jun-12 04:30N 41°13' E 001°44'  
Track history (hours):
 
Tides and Currents Weather Stations Pressure Air Temp Water Temp Dewpoint Dewpoint Depression Visibility Wind Speed Wind Dir Waves Ship Positions

Avi Francisco

Last reported at 2018-Jun-21 15:51 UTC. Time now 2018-Jun-22 03:51 UTC.
Position N 41°13' E 001°44'.

Length 20 m.

Type: Fishing. MMSI: 224169750.

Date/timePositionNaut miles runAvg speedWind from/ knotsBaromVisibWave heightAir tempDewpointWater temp
2018-Jun-21 15:51N 41°13' E 001°44'0 0.0
2018-Jun-21 15:30N 41°13' E 001°44'0 0.0
2018-Jun-21 14:57N 41°13' E 001°44'0 0.3
2018-Jun-21 14:30N 41°13' E 001°44'4 8.8
2018-Jun-21 14:00N 41°08' E 001°44'4 0.5
2018-Jun-21 05:27N 41°04' E 001°45'511.2
2018-Jun-21 05:00N 41°09' E 001°44'3 6.7
2018-Jun-21 04:30N 41°12' E 001°44'1 1.2
2018-Jun-21 04:00N 41°13' E 001°44'0 0.0
2018-Jun-20 15:18N 41°13' E 001°44'0 0.0
2018-Jun-20 15:00N 41°13' E 001°44'0 0.0
2018-Jun-20 14:30N 41°13' E 001°44'7 0.8
2018-Jun-20 05:19N 41°07' E 001°48'310.9
2018-Jun-20 05:00N 41°10' E 001°46'3 6.8
2018-Jun-20 04:30N 41°13' E 001°44'0 0.0
2018-Jun-19 15:58N 41°13' E 001°44'0 0.0
2018-Jun-19 15:28N 41°13' E 001°44'0 0.3
2018-Jun-19 15:00N 41°13' E 001°44'0 0.3
2018-Jun-19 14:30N 41°13' E 001°44'4 8.4
2018-Jun-19 14:00N 41°09' E 001°46'3 0.3
2018-Jun-19 05:17N 41°07' E 001°49'310.7
2018-Jun-19 05:00N 41°10' E 001°46'3 6.9
2018-Jun-19 04:31N 41°13' E 001°44'0 0.0
2018-Jun-18 14:35N 41°13' E 001°44'0 1.9
2018-Jun-18 14:30N 41°13' E 001°44'6 0.7
2018-Jun-18 05:18N 41°07' E 001°49'310.6
2018-Jun-18 05:00N 41°10' E 001°46'3 6.4
2018-Jun-18 04:30N 41°13' E 001°44'  
2018-Jun-15 15:18N 41°13' E 001°44'0 0.0
2018-Jun-15 15:00N 41°13' E 001°44'0 0.1
2018-Jun-15 14:31N 41°13' E 001°44'7 0.8
2018-Jun-15 05:24N 41°06' E 001°49'410.6
2018-Jun-15 05:00N 41°10' E 001°46'3 6.4
2018-Jun-15 04:31N 41°13' E 001°44'0 0.0
2018-Jun-14 15:10N 41°13' E 001°44'0 0.3
2018-Jun-14 14:59N 41°13' E 001°44'0 0.1
2018-Jun-14 14:30N 41°13' E 001°44'6 0.6
2018-Jun-14 05:12N 41°08' E 001°47'210.9
2018-Jun-14 05:00N 41°09' E 001°46'4 7.3
2018-Jun-14 04:30N 41°13' E 001°44'0 0.0
2018-Jun-13 14:36N 41°13' E 001°44'0 0.0
2018-Jun-13 14:31N 41°13' E 001°44'0 0.0
2018-Jun-13 14:00N 41°13' E 001°44'0 0.0
2018-Jun-13 13:31N 41°13' E 001°44'0 0.0
2018-Jun-13 13:00N 41°13' E 001°44'1 2.9
2018-Jun-13 12:30N 41°11' E 001°44'8 1.1
2018-Jun-13 05:37N 41°05' E 001°49'1 5.3
2018-Jun-13 05:30N 41°06' E 001°49'5 9.8
2018-Jun-13 05:00N 41°10' E 001°46'3 6.8
2018-Jun-13 04:31N 41°13' E 001°44'0 0.0
2018-Jun-12 15:06N 41°13' E 001°44'0 0.0
2018-Jun-12 15:00N 41°13' E 001°44'0 0.0
2018-Jun-12 14:31N 41°13' E 001°44'0 0.0
2018-Jun-12 13:40N 41°13' E 001°44'0 0.0
2018-Jun-12 13:30N 41°13' E 001°44'0 0.0
2018-Jun-12 13:01N 41°13' E 001°44'0 0.0
2018-Jun-12 12:30N 41°13' E 001°44'4 7.7
2018-Jun-12 12:00N 41°12' E 001°49'9 3.4
2018-Jun-12 09:24N 41°12' E 002°01'7 1.7
2018-Jun-12 05:27N 41°09' E 001°53'510.7
2018-Jun-12 05:01N 41°11' E 001°47'3 6.2
2018-Jun-12 04:30N 41°13' E 001°44'  

Dump ship's entire track history